Time;durP1;ratioP1;P1;durP2;ratioP2;P2;SDS_P1;SDS_P2;PMS_P1;PMS_P2;Temp;Humidity;BMP_temperature;BMP_pressure;BME280_temperature;BME280_humidity;BME280_pressure;Samples;Min_cycle;Max_cycle;Signal;HPM_P1;HPM_P2
2023/04/10 00:00:23;;;;;;;;;;;9.70;91.30;;;;;;5036023;28;20277;-70
2023/04/10 00:02:49;;;;;;;;;;;9.70;91.70;;;;;;5035982;28;19976;-70
2023/04/10 00:05:15;;;;;;;;;;;9.70;91.90;;;;;;5053648;28;19908;-70
2023/04/10 00:07:40;;;;;;;;;;;9.80;91.50;;;;;;5053457;28;19980;-70
2023/04/10 00:10:06;;;;;;;;;;;9.70;91.50;;;;;;5035644;28;20383;-70
2023/04/10 00:12:32;;;;;;;;;;;9.80;91.30;;;;;;5035232;28;19916;-69
2023/04/10 00:14:58;;;;;;;;;;;9.70;91.40;;;;;;5053261;28;19905;-70
2023/04/10 00:17:23;;;;;;;;;;;9.70;91.60;;;;;;5035462;28;19905;-70
2023/04/10 00:19:49;;;;;;;;;;;9.70;91.70;;;;;;5053546;28;19959;-71
2023/04/10 00:22:14;;;;;;;;;;;9.70;91.80;;;;;;5035598;28;20328;-71
2023/04/10 00:24:40;;;;;;;;;;;9.70;91.70;;;;;;5036035;28;19958;-70
2023/04/10 00:27:05;;;;;;;;;;;9.70;91.70;;;;;;5035448;28;19908;-70
2023/04/10 00:29:31;;;;;;;;;;;9.80;91.70;;;;;;5053348;28;19908;-71
2023/04/10 00:31:56;;;;;;;;;;;9.80;92.10;;;;;;5053495;28;20262;-69
2023/04/10 00:34:22;;;;;;;;;;;9.60;92.50;;;;;;5035339;28;19909;-69
2023/04/10 00:36:48;;;;;;;;;;;9.60;92.90;;;;;;5053148;28;19912;-69
2023/04/10 00:39:13;;;;;;;;;;;9.50;93.10;;;;;;5053062;28;19954;-69
2023/04/10 00:41:39;;;;;;;;;;;9.40;93.40;;;;;;5035197;28;19905;-71
2023/04/10 00:44:04;;;;;;;;;;;9.30;93.50;;;;;;5054328;28;19905;-71
2023/04/10 00:46:30;;;;;;;;;;;9.20;93.80;;;;;;5040898;28;20004;-71
2023/04/10 00:48:56;;;;;;;;;;;9.00;94.50;;;;;;5037316;28;20402;-71
2023/04/10 00:51:22;;;;;;;;;;;8.90;94.90;;;;;;5020112;28;19905;-71
2023/04/10 00:53:49;;;;;;;;;;;8.80;95.30;;;;;;5036994;28;19936;-71
2023/04/10 00:56:15;;;;;;;;;;;8.70;95.70;;;;;;5040699;28;20383;-71
2023/04/10 00:58:41;;;;;;;;;;;8.70;95.90;;;;;;5039125;28;19991;-71
2023/04/10 01:01:07;;;;;;;;;;;8.80;96.10;;;;;;5056784;28;20388;-70
2023/04/10 01:03:32;;;;;;;;;;;8.70;96.10;;;;;;5039535;28;19955;-70
2023/04/10 01:05:58;;;;;;;;;;;8.70;96.30;;;;;;5038741;28;19905;-70
2023/04/10 01:08:31;;;;;;;;;;;8.70;96.30;;;;;;5038398;28;19908;-71
2023/04/10 01:11:07;;;;;;;;;;;8.70;96.40;;;;;;5038657;28;19908;-71
2023/04/10 01:13:36;;;;;;;;;;;8.70;96.50;;;;;;5038485;28;20449;-70
2023/04/10 01:16:08;;;;;;;;;;;8.70;96.90;;;;;;5038614;28;19904;-70
2023/04/10 01:18:33;;;;;;;;;;;8.80;96.70;;;;;;5038532;28;19904;-70
2023/04/10 01:21:01;;;;;;;;;;;8.80;96.70;;;;;;5038612;28;19995;-71
2023/04/10 01:23:45;;;;;;;;;;;8.80;96.60;;;;;;5057050;28;19905;-70
2023/04/10 01:26:12;;;;;;;;;;;8.80;96.60;;;;;;5039296;28;19904;-71
2023/04/10 01:28:59;;;;;;;;;;;8.90;96.40;;;;;;5057121;28;20285;-71
2023/04/10 01:31:27;;;;;;;;;;;8.80;96.50;;;;;;5060139;28;20371;-71
2023/04/10 01:33:55;;;;;;;;;;;8.80;96.40;;;;;;5060834;28;19908;-71
2023/04/10 01:36:23;;;;;;;;;;;8.90;96.20;;;;;;5045399;28;19905;-71
2023/04/10 01:38:49;;;;;;;;;;;8.90;96.30;;;;;;5056953;28;19911;-71
2023/04/10 01:41:15;;;;;;;;;;;8.90;96.30;;;;;;5038097;28;19905;-70
2023/04/10 01:43:41;;;;;;;;;;;8.90;96.40;;;;;;5055929;28;19911;-70
2023/04/10 01:46:07;;;;;;;;;;;8.80;96.50;;;;;;5056183;28;19905;-71
2023/04/10 01:48:33;;;;;;;;;;;8.80;96.50;;;;;;5038272;28;19916;-71
2023/04/10 01:51:00;;;;;;;;;;;8.90;96.50;;;;;;5056260;28;19912;-71
2023/04/10 01:53:26;;;;;;;;;;;8.90;96.60;;;;;;5056298;28;19905;-71
2023/04/10 01:55:52;;;;;;;;;;;8.80;96.80;;;;;;5054208;23;19921;-66
2023/04/10 01:58:18;;;;;;;;;;;8.80;96.90;;;;;;5017440;28;20289;-66
2023/04/10 02:00:43;;;;;;;;;;;8.80;96.90;;;;;;5036461;28;19909;-67
2023/04/10 02:03:09;;;;;;;;;;;8.80;96.80;;;;;;5035824;28;19928;-65
2023/04/10 02:05:53;;;;;;;;;;;8.80;96.70;;;;;;5018660;28;20365;-66
2023/04/10 02:08:36;;;;;;;;;;;8.80;96.60;;;;;;5017994;28;19909;-66
2023/04/10 02:11:05;;;;;;;;;;;8.80;96.70;;;;;;5035386;28;19905;-66
2023/04/10 02:13:38;;;;;;;;;;;8.80;96.80;;;;;;5035919;28;19905;-66
2023/04/10 02:16:05;;;;;;;;;;;8.70;96.90;;;;;;5035581;28;20255;-66
2023/04/10 02:18:32;;;;;;;;;;;8.70;97.00;;;;;;5035310;28;20431;-66
2023/04/10 02:20:58;;;;;;;;;;;8.70;97.00;;;;;;5035261;28;19913;-66
2023/04/10 02:23:23;;;;;;;;;;;8.70;97.00;;;;;;5035267;28;19905;-66
2023/04/10 02:25:49;;;;;;;;;;;8.60;97.20;;;;;;5034786;28;19909;-66
2023/04/10 02:28:15;;;;;;;;;;;8.60;97.20;;;;;;5035809;28;20407;-66
2023/04/10 02:30:40;;;;;;;;;;;8.60;97.20;;;;;;5035315;28;20285;-66
2023/04/10 02:33:06;;;;;;;;;;;8.60;97.30;;;;;;5034941;28;19992;-66
2023/04/10 02:35:32;;;;;;;;;;;8.50;97.50;;;;;;5034923;28;19905;-66
2023/04/10 02:37:57;;;;;;;;;;;8.50;97.50;;;;;;5035043;28;19905;-66
2023/04/10 02:40:23;;;;;;;;;;;8.50;97.50;;;;;;5035434;28;20007;-66
2023/04/10 02:42:48;;;;;;;;;;;8.40;97.60;;;;;;5017604;28;19909;-66
2023/04/10 02:45:14;;;;;;;;;;;8.40;97.90;;;;;;5017812;28;20369;-66
2023/04/10 02:47:39;;;;;;;;;;;8.30;98.30;;;;;;5017214;28;19912;-66
2023/04/10 02:50:05;;;;;;;;;;;8.30;98.30;;;;;;5035365;28;19950;-66
2023/04/10 02:52:30;;;;;;;;;;;8.40;98.10;;;;;;5034945;28;19963;-66
2023/04/10 02:54:56;;;;;;;;;;;8.40;98.10;;;;;;5034536;28;20003;-65
2023/04/10 02:57:21;;;;;;;;;;;8.30;98.20;;;;;;5034212;28;19913;-66
2023/04/10 02:59:50;;;;;;;;;;;8.20;98.60;;;;;;5016843;28;19905;-67
2023/04/10 03:02:16;;;;;;;;;;;8.20;98.90;;;;;;5034868;28;20342;-67
2023/04/10 03:04:42;;;;;;;;;;;8.20;98.80;;;;;;5034798;28;19913;-65
2023/04/10 03:07:07;;;;;;;;;;;8.30;98.50;;;;;;5033940;28;19905;-66
2023/04/10 03:09:33;;;;;;;;;;;8.20;98.70;;;;;;5034819;28;19952;-65
2023/04/10 03:11:58;;;;;;;;;;;8.30;98.70;;;;;;5034044;28;19909;-66
2023/04/10 03:14:25;;;;;;;;;;;8.30;98.50;;;;;;5034597;28;20365;-66
2023/04/10 03:16:50;;;;;;;;;;;8.30;98.70;;;;;;5034287;28;19955;-65
2023/04/10 03:19:16;;;;;;;;;;;8.20;98.70;;;;;;5034245;28;19905;-66
2023/04/10 03:21:41;;;;;;;;;;;8.10;99.20;;;;;;5016755;28;19906;-65
2023/04/10 03:24:06;;;;;;;;;;;8.10;99.10;;;;;;5034734;28;19995;-66
2023/04/10 03:26:32;;;;;;;;;;;8.20;99.10;;;;;;5034216;28;19909;-66
2023/04/10 03:28:57;;;;;;;;;;;8.20;99.10;;;;;;5034545;28;20361;-67
2023/04/10 03:31:23;;;;;;;;;;;8.20;99.00;;;;;;5036354;28;20373;-66
2023/04/10 03:33:48;;;;;;;;;;;8.10;99.10;;;;;;5025101;28;19964;-66
2023/04/10 03:36:14;;;;;;;;;;;8.10;99.00;;;;;;5047510;28;19927;-66
2023/04/10 03:38:40;;;;;;;;;;;8.10;99.20;;;;;;5047733;28;19905;-66
2023/04/10 03:41:05;;;;;;;;;;;8.00;99.50;;;;;;5044666;28;20285;-65
2023/04/10 03:43:31;;;;;;;;;;;8.00;99.40;;;;;;5034224;28;20250;-65
2023/04/10 03:45:56;;;;;;;;;;;8.00;99.60;;;;;;5016062;28;19912;-65
2023/04/10 03:48:22;;;;;;;;;;;8.00;99.90;;;;;;5034288;28;19908;-65
2023/04/10 03:50:47;;;;;;;;;;;7.90;99.90;;;;;;5016490;28;19955;-66
2023/04/10 03:53:12;;;;;;;;;;;7.80;99.90;;;;;;5033676;28;19909;-67
2023/04/10 03:55:38;;;;;;;;;;;7.80;99.90;;;;;;5033208;28;20289;-66
2023/04/10 03:58:04;;;;;;;;;;;7.80;99.90;;;;;;5033598;28;19905;-66
2023/04/10 04:00:30;;;;;;;;;;;7.80;99.90;;;;;;5034169;28;20368;-65
2023/04/10 04:02:57;;;;;;;;;;;7.80;99.90;;;;;;5016167;28;19905;-66
2023/04/10 04:05:23;;;;;;;;;;;7.90;99.90;;;;;;5015973;28;19905;-65
2023/04/10 04:07:49;;;;;;;;;;;7.90;99.60;;;;;;5033463;28;19996;-65
2023/04/10 04:10:14;;;;;;;;;;;8.00;99.50;;;;;;5033861;28;19993;-65
2023/04/10 04:12:40;;;;;;;;;;;8.00;99.40;;;;;;5015595;28;19954;-65
2023/04/10 04:15:05;;;;;;;;;;;8.00;99.30;;;;;;5033830;28;20368;-66
2023/04/10 04:17:31;;;;;;;;;;;8.00;99.20;;;;;;5033581;28;20375;-66
2023/04/10 04:19:56;;;;;;;;;;;8.00;99.10;;;;;;5036079;28;19905;-67
2023/04/10 04:22:22;;;;;;;;;;;7.90;99.30;;;;;;5037882;28;20373;-66
2023/04/10 04:24:47;;;;;;;;;;;7.80;99.30;;;;;;5037525;28;20250;-66
2023/04/10 04:27:13;;;;;;;;;;;7.90;99.30;;;;;;5036941;28;19909;-66
2023/04/10 04:29:38;;;;;;;;;;;8.00;99.20;;;;;;5037566;28;19913;-66
2023/04/10 04:32:03;;;;;;;;;;;8.00;99.10;;;;;;5019596;28;19908;-66
2023/04/10 04:34:29;;;;;;;;;;;7.90;99.20;;;;;;5019706;28;20044;-66
2023/04/10 04:36:54;;;;;;;;;;;7.90;99.20;;;;;;5037370;28;19936;-66
2023/04/10 04:39:22;;;;;;;;;;;7.90;99.30;;;;;;5019592;28;19905;-66
2023/04/10 04:41:47;;;;;;;;;;;7.80;99.30;;;;;;5037994;28;19905;-65
2023/04/10 04:44:13;;;;;;;;;;;7.80;99.50;;;;;;5037118;28;19955;-65
2023/04/10 04:46:38;;;;;;;;;;;7.80;99.50;;;;;;5037041;28;20300;-66
2023/04/10 04:49:03;;;;;;;;;;;7.80;99.40;;;;;;5036849;28;19955;-66
2023/04/10 04:51:29;;;;;;;;;;;7.70;99.60;;;;;;5037156;28;19972;-65
2023/04/10 04:53:55;;;;;;;;;;;7.70;99.60;;;;;;5037344;28;19906;-65
2023/04/10 04:56:20;;;;;;;;;;;7.70;99.70;;;;;;5036633;28;20292;-65
2023/04/10 04:58:46;;;;;;;;;;;7.70;99.80;;;;;;5037580;28;19912;-65
2023/04/10 05:01:11;;;;;;;;;;;7.60;99.90;;;;;;5037134;28;19983;-67
2023/04/10 05:03:37;;;;;;;;;;;7.70;99.90;;;;;;5019581;28;20338;-66
2023/04/10 05:06:02;;;;;;;;;;;7.60;99.90;;;;;;5037152;28;19916;-66
2023/04/10 05:08:28;;;;;;;;;;;7.70;99.90;;;;;;5036377;28;19912;-66
2023/04/10 05:10:53;;;;;;;;;;;7.70;99.80;;;;;;5036347;28;19955;-65
2023/04/10 05:13:19;;;;;;;;;;;7.70;99.70;;;;;;5037055;28;19905;-66
2023/04/10 05:15:44;;;;;;;;;;;7.70;99.60;;;;;;5036858;28;19905;-66
2023/04/10 05:18:10;;;;;;;;;;;7.80;99.50;;;;;;5036825;28;19905;-67
2023/04/10 05:20:35;;;;;;;;;;;7.80;99.30;;;;;;5036879;28;19905;-67
2023/04/10 05:23:01;;;;;;;;;;;7.90;99.00;;;;;;5019278;28;19905;-66
2023/04/10 05:25:26;;;;;;;;;;;7.90;98.90;;;;;;5036925;28;19952;-66
2023/04/10 05:27:52;;;;;;;;;;;7.90;98.90;;;;;;5036369;28;20472;-66
2023/04/10 05:30:17;;;;;;;;;;;8.00;98.60;;;;;;5036055;28;19904;-66
2023/04/10 05:32:44;;;;;;;;;;;8.10;98.50;;;;;;5036318;28;19909;-66
2023/04/10 05:35:10;;;;;;;;;;;8.10;98.40;;;;;;5036689;28;19905;-65
2023/04/10 05:37:35;;;;;;;;;;;8.10;98.20;;;;;;5036385;28;19912;-65
2023/04/10 05:40:01;;;;;;;;;;;8.20;98.10;;;;;;5030370;28;19909;-66
2023/04/10 05:42:26;;;;;;;;;;;8.30;98.00;;;;;;5022273;28;19913;-66
2023/04/10 05:44:52;;;;;;;;;;;8.30;98.00;;;;;;5022123;28;20364;-66
2023/04/10 05:47:17;;;;;;;;;;;8.30;97.90;;;;;;5036194;28;19953;-66
2023/04/10 05:49:42;;;;;;;;;;;8.30;98.00;;;;;;5036988;28;19931;-65
2023/04/10 05:52:08;;;;;;;;;;;8.40;97.80;;;;;;5035567;28;19955;-66
2023/04/10 05:54:33;;;;;;;;;;;8.40;97.80;;;;;;5036894;28;19905;-66
2023/04/10 05:57:00;;;;;;;;;;;8.40;98.00;;;;;;5034855;28;19920;-66
2023/04/10 05:59:26;;;;;;;;;;;8.40;97.90;;;;;;5036619;28;19911;-66
2023/04/10 06:01:51;;;;;;;;;;;8.50;97.50;;;;;;5037108;28;19913;-66
2023/04/10 06:04:16;;;;;;;;;;;8.50;97.60;;;;;;5038305;28;19905;-65
2023/04/10 06:06:42;;;;;;;;;;;8.60;97.30;;;;;;5038115;28;19909;-67
2023/04/10 06:09:07;;;;;;;;;;;8.60;97.30;;;;;;5038676;28;19916;-67
2023/04/10 06:11:33;;;;;;;;;;;8.70;97.30;;;;;;5035849;28;20369;-66
2023/04/10 06:13:58;;;;;;;;;;;8.80;96.80;;;;;;5040297;28;19905;-67
2023/04/10 06:16:24;;;;;;;;;;;8.90;96.80;;;;;;5037806;28;20353;-67
2023/04/10 06:18:51;;;;;;;;;;;8.90;96.90;;;;;;5036258;28;20368;-67
2023/04/10 06:21:17;;;;;;;;;;;9.00;96.50;;;;;;5010572;28;19910;-66
2023/04/10 06:23:45;;;;;;;;;;;9.00;96.40;;;;;;5015282;28;20047;-67
2023/04/10 06:26:11;;;;;;;;;;;9.10;96.10;;;;;;5023488;28;19912;-66
2023/04/10 06:28:36;;;;;;;;;;;9.20;95.90;;;;;;5036161;28;19958;-66
2023/04/10 06:31:03;;;;;;;;;;;9.20;95.70;;;;;;5036269;28;19909;-66
2023/04/10 06:33:28;;;;;;;;;;;9.30;95.30;;;;;;5035869;28;19905;-67
2023/04/10 06:35:54;;;;;;;;;;;9.30;95.20;;;;;;5036273;28;19911;-67
2023/04/10 06:38:20;;;;;;;;;;;9.40;95.00;;;;;;5035749;28;19912;-66
2023/04/10 06:40:45;;;;;;;;;;;9.50;94.90;;;;;;5035675;28;19905;-66
2023/04/10 06:43:11;;;;;;;;;;;9.50;94.90;;;;;;5017111;28;19952;-67
2023/04/10 06:45:36;;;;;;;;;;;9.60;94.50;;;;;;5036446;28;19939;-67
2023/04/10 06:48:02;;;;;;;;;;;9.60;94.40;;;;;;5018206;28;19913;-67
2023/04/10 06:50:27;;;;;;;;;;;9.80;94.30;;;;;;5035528;28;19912;-66
2023/04/10 06:52:54;;;;;;;;;;;9.80;93.90;;;;;;5035333;28;19971;-66
2023/04/10 06:55:20;;;;;;;;;;;9.90;94.00;;;;;;5035202;28;19992;-65
2023/04/10 06:57:45;;;;;;;;;;;9.90;93.80;;;;;;5035783;28;19940;-66
2023/04/10 07:00:11;;;;;;;;;;;10.00;93.60;;;;;;5018178;28;19912;-67
2023/04/10 07:02:37;;;;;;;;;;;10.00;94.00;;;;;;5035434;28;19904;-66
2023/04/10 07:05:02;;;;;;;;;;;10.10;93.30;;;;;;5035179;28;20439;-65
2023/04/10 07:07:28;;;;;;;;;;;10.20;93.00;;;;;;5034506;28;19916;-65
2023/04/10 07:09:53;;;;;;;;;;;10.20;93.30;;;;;;5034320;28;20300;-65
2023/04/10 07:12:19;;;;;;;;;;;10.30;93.10;;;;;;5034590;28;19980;-68
2023/04/10 07:14:44;;;;;;;;;;;10.30;92.70;;;;;;5035279;28;19916;-65
2023/04/10 07:17:10;;;;;;;;;;;10.40;92.60;;;;;;5017285;28;19962;-66
2023/04/10 07:19:36;;;;;;;;;;;10.60;92.20;;;;;;5034274;28;19911;-65
2023/04/10 07:22:02;;;;;;;;;;;10.70;92.00;;;;;;5025573;28;19917;-65
2023/04/10 07:24:27;;;;;;;;;;;10.70;92.10;;;;;;5014108;28;19905;-65
2023/04/10 07:26:53;;;;;;;;;;;10.80;91.90;;;;;;5018649;28;19966;-65
2023/04/10 07:29:19;;;;;;;;;;;10.80;91.80;;;;;;5026018;28;20278;-65
2023/04/10 07:31:44;;;;;;;;;;;10.90;91.60;;;;;;5014663;28;19952;-66
2023/04/10 07:34:10;;;;;;;;;;;11.10;90.90;;;;;;5015149;28;19917;-66
2023/04/10 07:36:36;;;;;;;;;;;11.20;90.80;;;;;;5013286;28;19905;-65
2023/04/10 07:39:01;;;;;;;;;;;11.30;90.30;;;;;;4995739;28;19912;-66
2023/04/10 07:41:27;;;;;;;;;;;11.50;90.40;;;;;;5014823;28;20404;-66
2023/04/10 07:43:52;;;;;;;;;;;11.60;90.10;;;;;;5015719;28;19949;-65
2023/04/10 07:46:18;;;;;;;;;;;11.60;89.50;;;;;;4997608;28;19956;-66
2023/04/10 07:48:43;;;;;;;;;;;11.80;88.60;;;;;;5015554;28;19939;-66
2023/04/10 07:51:09;;;;;;;;;;;11.90;88.30;;;;;;5007814;28;19979;-66
2023/04/10 07:53:35;;;;;;;;;;;12.00;87.90;;;;;;5019377;28;19913;-64
2023/04/10 07:56:01;;;;;;;;;;;12.00;87.80;;;;;;5023716;28;20019;-66
2023/04/10 07:58:27;;;;;;;;;;;12.00;88.80;;;;;;5033369;28;19940;-65
2023/04/10 08:00:52;;;;;;;;;;;12.20;87.00;;;;;;5016834;28;20313;-65
2023/04/10 08:03:18;;;;;;;;;;;12.40;87.20;;;;;;5032734;28;20008;-64
2023/04/10 08:05:43;;;;;;;;;;;12.50;86.00;;;;;;5033970;28;19995;-65
2023/04/10 08:08:09;;;;;;;;;;;12.70;85.20;;;;;;5033908;28;20251;-65
2023/04/10 08:10:38;;;;;;;;;;;12.80;84.50;;;;;;5034392;28;19990;-65
2023/04/10 08:13:03;;;;;;;;;;;13.00;84.00;;;;;;5032355;28;19955;-65
2023/04/10 08:15:29;;;;;;;;;;;13.10;83.30;;;;;;5016266;28;19905;-65
2023/04/10 08:17:54;;;;;;;;;;;13.10;82.60;;;;;;5015944;28;19905;-65
2023/04/10 08:20:20;;;;;;;;;;;13.30;82.60;;;;;;5028372;28;19909;-65
2023/04/10 08:22:45;;;;;;;;;;;13.40;82.20;;;;;;5033494;28;19906;-65
2023/04/10 08:25:11;;;;;;;;;;;13.50;81.20;;;;;;5033736;28;19967;-66
2023/04/10 08:27:36;;;;;;;;;;;13.70;80.40;;;;;;5032605;28;19905;-66
2023/04/10 08:30:02;;;;;;;;;;;13.90;78.90;;;;;;5033200;28;19909;-64
2023/04/10 08:32:28;;;;;;;;;;;14.10;78.50;;;;;;5015910;28;19991;-66
2023/04/10 08:34:53;;;;;;;;;;;14.20;78.00;;;;;;5033363;28;19909;-66
2023/04/10 08:37:20;;;;;;;;;;;14.50;76.90;;;;;;5033700;28;19913;-65
2023/04/10 08:39:45;;;;;;;;;;;15.00;76.30;;;;;;5033899;28;19912;-65
2023/04/10 08:42:11;;;;;;;;;;;16.30;73.90;;;;;;5016957;28;20285;-67
2023/04/10 08:44:36;;;;;;;;;;;17.60;71.90;;;;;;5035728;28;19917;-67
2023/04/10 08:47:02;;;;;;;;;;;19.90;66.70;;;;;;5035080;28;19905;-68
2023/04/10 08:49:38;;;;;;;;;;;22.70;61.10;;;;;;5035224;28;19915;-67
2023/04/10 08:52:06;;;;;;;;;;;23.10;56.70;;;;;;5021474;28;19906;-67
2023/04/10 08:54:32;;;;;;;;;;;23.50;56.20;;;;;;5025433;28;19905;-67
2023/04/10 08:57:00;;;;;;;;;;;24.90;54.00;;;;;;5033960;28;19912;-67
2023/04/10 08:59:27;;;;;;;;;;;25.80;51.10;;;;;;5034581;28;19927;-67
2023/04/10 09:01:52;;;;;;;;;;;26.40;50.40;;;;;;5034948;28;19905;-67
2023/04/10 09:04:18;;;;;;;;;;;28.00;48.00;;;;;;5035598;28;19959;-66
2023/04/10 09:06:44;;;;;;;;;;;28.30;46.40;;;;;;5019808;28;20007;-67
2023/04/10 09:09:09;;;;;;;;;;;28.70;45.90;;;;;;5038179;28;19952;-67
2023/04/10 09:12:02;;;;;;;;;;;29.10;45.60;;;;;;5020457;28;19905;-67
2023/04/10 09:14:30;;;;;;;;;;;30.70;44.20;;;;;;5028578;28;19905;-70
2023/04/10 09:17:11;;;;;;;;;;;31.70;43.40;;;;;;5019641;28;19909;-69
2023/04/10 09:19:36;;;;;;;;;;;32.30;42.00;;;;;;5038269;28;19954;-69
2023/04/10 09:22:02;;;;;;;;;;;32.00;41.40;;;;;;5020600;28;20273;-68
2023/04/10 09:24:27;;;;;;;;;;;32.50;41.10;;;;;;5021605;28;19928;-69
2023/04/10 09:26:53;;;;;;;;;;;32.60;40.70;;;;;;5039038;28;20429;-67
2023/04/10 09:29:18;;;;;;;;;;;32.00;40.30;;;;;;5020914;28;19909;-67
2023/04/10 09:31:44;;;;;;;;;;;31.20;40.50;;;;;;5020501;28;19909;-67
2023/04/10 09:34:23;;;;;;;;;;;27.80;41.70;;;;;;5038420;28;19905;-67
2023/04/10 09:36:53;;;;;;;;;;;27.70;42.30;;;;;;5020111;28;19905;-66
2023/04/10 09:39:19;;;;;;;;;;;28.50;42.70;;;;;;5038437;28;20333;-67
2023/04/10 09:41:53;;;;;;;;;;;28.60;42.40;;;;;;5037690;28;19913;-66
2023/04/10 09:44:28;;;;;;;;;;;29.00;42.00;;;;;;5037663;28;19928;-67
2023/04/10 09:46:54;;;;;;;;;;;30.80;40.70;;;;;;5019957;28;19913;-67
2023/04/10 09:49:19;;;;;;;;;;;29.00;41.40;;;;;;5037822;28;19932;-67
2023/04/10 09:51:46;;;;;;;;;;;26.10;42.80;;;;;;5038256;28;20362;-67
2023/04/10 09:54:11;;;;;;;;;;;26.40;43.10;;;;;;5037788;28;19909;-67
2023/04/10 09:56:38;;;;;;;;;;;26.90;42.60;;;;;;5016292;28;19913;-68
2023/04/10 09:59:05;;;;;;;;;;;27.70;41.80;;;;;;5017321;28;19909;-69
2023/04/10 10:01:33;;;;;;;;;;;27.50;42.70;;;;;;5026291;28;19963;-68
2023/04/10 10:04:00;;;;;;;;;;;28.30;42.10;;;;;;5018398;28;19952;-67
2023/04/10 10:06:26;;;;;;;;;;;26.80;43.30;;;;;;5037838;28;19928;-68
2023/04/10 10:08:52;;;;;;;;;;;26.60;42.50;;;;;;5036949;28;20377;-68
2023/04/10 10:11:19;;;;;;;;;;;24.70;44.10;;;;;;5036748;28;19905;-68
2023/04/10 10:13:51;;;;;;;;;;;23.70;44.70;;;;;;5035560;28;19948;-67
2023/04/10 10:16:20;;;;;;;;;;;24.40;46.00;;;;;;5037503;28;20262;-68
2023/04/10 10:18:55;;;;;;;;;;;24.90;45.20;;;;;;5038015;28;19906;-67
2023/04/10 10:21:22;;;;;;;;;;;26.10;43.60;;;;;;5036318;28;20000;-68
2023/04/10 10:23:52;;;;;;;;;;;24.50;44.10;;;;;;5037725;28;19905;-66
2023/04/10 10:26:18;;;;;;;;;;;26.10;45.30;;;;;;5038092;28;19905;-68
2023/04/10 10:28:45;;;;;;;;;;;28.90;44.70;;;;;;5037204;28;20320;-67
2023/04/10 10:31:10;;;;;;;;;;;30.20;43.10;;;;;;5038166;28;19905;-68
2023/04/10 10:33:36;;;;;;;;;;;28.70;42.40;;;;;;5019673;28;19947;-67
2023/04/10 10:36:03;;;;;;;;;;;29.10;43.00;;;;;;5037410;28;19905;-66
2023/04/10 10:38:29;;;;;;;;;;;30.40;42.80;;;;;;5037458;28;19996;-67
2023/04/10 10:41:07;;;;;;;;;;;31.60;41.90;;;;;;5037126;28;19905;-67
2023/04/10 10:43:36;;;;;;;;;;;33.10;41.50;;;;;;5037586;28;19935;-67
2023/04/10 10:46:03;;;;;;;;;;;34.10;40.60;;;;;;5037925;28;19905;-67
2023/04/10 10:48:29;;;;;;;;;;;33.70;40.10;;;;;;5037782;28;19963;-67
2023/04/10 10:50:59;;;;;;;;;;;33.40;40.10;;;;;;5037534;28;19905;-67
2023/04/10 10:53:44;;;;;;;;;;;33.10;40.20;;;;;;5037139;28;20006;-67
2023/04/10 10:56:19;;;;;;;;;;;27.10;42.00;;;;;;5036888;28;20301;-67
2023/04/10 10:58:49;;;;;;;;;;;26.80;44.30;;;;;;5031865;28;20425;-67
2023/04/10 11:01:15;;;;;;;;;;;29.50;42.90;;;;;;5036117;28;20358;-67
2023/04/10 11:03:40;;;;;;;;;;;28.00;41.60;;;;;;5036131;28;19920;-67
2023/04/10 11:06:07;;;;;;;;;;;26.80;42.70;;;;;;5017912;28;19905;-67
2023/04/10 11:08:35;;;;;;;;;;;27.80;44.10;;;;;;5035637;28;19995;-67
2023/04/10 11:11:02;;;;;;;;;;;28.00;43.60;;;;;;5018597;28;19909;-67
2023/04/10 11:13:28;;;;;;;;;;;26.90;43.00;;;;;;5035577;28;20340;-67
2023/04/10 11:15:57;;;;;;;;;;;24.20;44.60;;;;;;5017910;28;19909;-68
2023/04/10 11:18:41;;;;;;;;;;;23.10;47.10;;;;;;5037338;28;20383;-67
2023/04/10 11:21:09;;;;;;;;;;;22.20;47.40;;;;;;5036895;28;19955;-67
2023/04/10 11:23:34;;;;;;;;;;;21.70;48.20;;;;;;5037063;28;19912;-67
2023/04/10 11:26:00;;;;;;;;;;;21.40;48.50;;;;;;5036744;28;20273;-67
2023/04/10 11:28:32;;;;;;;;;;;21.10;48.60;;;;;;5019053;28;19909;-67
2023/04/10 11:31:13;;;;;;;;;;;20.90;48.60;;;;;;5036958;28;19945;-67
2023/04/10 11:33:39;;;;;;;;;;;20.90;49.00;;;;;;5018029;28;19996;-70
2023/04/10 11:36:05;;;;;;;;;;;20.80;48.70;;;;;;5015990;28;19978;-67
2023/04/10 11:38:31;;;;;;;;;;;20.40;48.50;;;;;;5016703;28;19963;-68
2023/04/10 11:41:01;;;;;;;;;;;20.20;49.70;;;;;;5034719;28;19908;-68
2023/04/10 11:43:26;;;;;;;;;;;20.10;49.60;;;;;;5034037;28;19909;-67
2023/04/10 11:45:58;;;;;;;;;;;20.00;49.70;;;;;;5016158;28;19955;-68
2023/04/10 11:48:24;;;;;;;;;;;19.90;49.50;;;;;;5016396;28;19908;-67
2023/04/10 11:50:50;;;;;;;;;;;20.00;51.00;;;;;;5034497;28;20374;-69
2023/04/10 11:53:19;;;;;;;;;;;20.10;50.00;;;;;;5034680;28;19955;-69
2023/04/10 11:55:45;;;;;;;;;;;20.30;50.00;;;;;;5034141;28;19913;-68
2023/04/10 11:58:21;;;;;;;;;;;20.40;49.90;;;;;;5032470;28;20311;-69
2023/04/10 12:00:54;;;;;;;;;;;20.50;49.60;;;;;;5034061;28;19905;-69
2023/04/10 12:03:29;;;;;;;;;;;20.70;49.50;;;;;;5033615;28;20234;-69
2023/04/10 12:05:55;;;;;;;;;;;20.90;49.50;;;;;;5016119;28;19959;-69
2023/04/10 12:08:28;;;;;;;;;;;20.60;49.80;;;;;;5033651;28;19964;-69
2023/04/10 12:10:54;;;;;;;;;;;20.10;50.40;;;;;;5034661;28;20376;-68
2023/04/10 12:13:23;;;;;;;;;;;19.50;51.40;;;;;;5033695;28;19905;-68
2023/04/10 12:15:49;;;;;;;;;;;19.40;51.80;;;;;;5033560;28;19912;-68
2023/04/10 12:18:14;;;;;;;;;;;19.30;51.40;;;;;;5033815;28;19905;-68
2023/04/10 12:20:40;;;;;;;;;;;19.80;51.00;;;;;;5033450;28;20005;-68
2023/04/10 12:23:05;;;;;;;;;;;20.20;50.10;;;;;;5033736;28;19948;-68
2023/04/10 12:25:31;;;;;;;;;;;20.40;50.30;;;;;;5033478;28;19905;-68
2023/04/10 12:27:57;;;;;;;;;;;20.40;50.20;;;;;;5033827;28;20374;-68
2023/04/10 12:30:23;;;;;;;;;;;20.30;50.30;;;;;;5033410;28;19905;-68
2023/04/10 12:32:54;;;;;;;;;;;20.20;50.80;;;;;;5033834;28;19905;-68
2023/04/10 12:35:20;;;;;;;;;;;20.50;50.90;;;;;;5015569;28;19905;-69
2023/04/10 12:37:46;;;;;;;;;;;20.60;50.70;;;;;;5033540;28;19994;-69
2023/04/10 12:40:12;;;;;;;;;;;20.50;51.50;;;;;;5035076;28;20003;-70
2023/04/10 12:42:43;;;;;;;;;;;20.50;50.20;;;;;;5037403;28;19905;-69
2023/04/10 12:45:12;;;;;;;;;;;20.60;50.40;;;;;;5037750;28;19905;-69
2023/04/10 12:47:48;;;;;;;;;;;20.50;51.10;;;;;;5037943;28;19905;-69
2023/04/10 12:50:14;;;;;;;;;;;20.40;51.70;;;;;;5040241;28;19913;-68
2023/04/10 12:52:44;;;;;;;;;;;20.40;51.90;;;;;;5037511;28;19909;-68
2023/04/10 12:55:11;;;;;;;;;;;20.30;51.90;;;;;;5037240;28;19905;-69
2023/04/10 12:57:37;;;;;;;;;;;20.10;52.30;;;;;;5037133;28;19913;-68
2023/04/10 13:00:05;;;;;;;;;;;20.40;52.30;;;;;;5037537;28;19905;-68
2023/04/10 13:02:31;;;;;;;;;;;20.30;52.30;;;;;;5037687;28;19905;-69
2023/04/10 13:04:56;;;;;;;;;;;20.30;51.90;;;;;;5037813;28;20427;-68
2023/04/10 13:07:22;;;;;;;;;;;20.40;52.30;;;;;;5038636;28;20324;-67
2023/04/10 13:09:47;;;;;;;;;;;20.40;52.00;;;;;;5019707;28;19916;-68
2023/04/10 13:12:13;;;;;;;;;;;20.70;51.90;;;;;;5037718;28;19959;-68
2023/04/10 13:14:39;;;;;;;;;;;20.90;51.50;;;;;;5037564;28;20372;-68
2023/04/10 13:17:05;;;;;;;;;;;21.00;51.30;;;;;;5038191;28;19905;-68
2023/04/10 13:19:30;;;;;;;;;;;21.10;51.20;;;;;;5019790;28;20038;-69
2023/04/10 13:21:55;;;;;;;;;;;21.30;51.00;;;;;;5036766;28;19995;-69
2023/04/10 13:24:21;;;;;;;;;;;21.30;50.90;;;;;;5039088;28;19913;-69
2023/04/10 13:26:46;;;;;;;;;;;20.70;51.90;;;;;;5023078;28;19911;-69
2023/04/10 13:29:12;;;;;;;;;;;20.90;50.70;;;;;;5039237;28;19995;-69
2023/04/10 13:31:37;;;;;;;;;;;21.00;50.80;;;;;;5023015;28;20254;-69
2023/04/10 13:34:03;;;;;;;;;;;21.20;51.00;;;;;;5040982;28;19912;-69
2023/04/10 13:36:28;;;;;;;;;;;20.90;50.70;;;;;;5036833;28;19912;-70
2023/04/10 13:38:54;;;;;;;;;;;20.70;51.30;;;;;;5036572;28;19951;-69
2023/04/10 13:41:19;;;;;;;;;;;20.70;51.20;;;;;;5036244;28;19911;-69
2023/04/10 13:43:45;;;;;;;;;;;20.80;51.50;;;;;;5018466;28;19905;-70
2023/04/10 13:46:10;;;;;;;;;;;20.70;51.00;;;;;;5036522;28;19913;-68
2023/04/10 13:48:40;;;;;;;;;;;21.00;50.40;;;;;;5036536;28;19909;-70
2023/04/10 13:51:05;;;;;;;;;;;21.10;51.00;;;;;;5036136;28;19905;-68
2023/04/10 13:53:31;;;;;;;;;;;20.80;51.40;;;;;;5036083;28;19912;-69
2023/04/10 13:55:56;;;;;;;;;;;20.90;51.60;;;;;;5035858;28;20297;-69
2023/04/10 13:58:21;;;;;;;;;;;21.10;50.40;;;;;;5036098;28;19928;-68
2023/04/10 14:00:47;;;;;;;;;;;21.00;50.30;;;;;;5037351;28;19964;-68
2023/04/10 14:03:12;;;;;;;;;;;21.10;50.60;;;;;;5036790;28;19948;-66
2023/04/10 14:05:38;;;;;;;;;;;21.20;50.50;;;;;;5036857;28;20327;-68
2023/04/10 14:08:04;;;;;;;;;;;21.30;49.70;;;;;;5035360;28;19995;-68
2023/04/10 14:10:29;;;;;;;;;;;21.10;49.70;;;;;;5036626;28;19905;-68
2023/04/10 14:12:55;;;;;;;;;;;21.10;50.20;;;;;;5036866;28;19905;-67
2023/04/10 14:15:21;;;;;;;;;;;21.10;49.90;;;;;;5036744;28;19912;-67
2023/04/10 14:17:46;;;;;;;;;;;21.10;50.00;;;;;;5027365;28;19905;-67
2023/04/10 14:20:12;;;;;;;;;;;20.90;50.10;;;;;;5018497;28;19904;-66